sensor_id;sensor_type;location;lat;lon;timestamp;temperature;humidity
21306;DHT22;10812;51.838;5.838;2023-09-19T04:09:48;12.80;99.90
21306;DHT22;10812;51.838;5.838;2023-09-19T04:12:17;12.80;99.90
21306;DHT22;10812;51.838;5.838;2023-09-19T04:14:45;12.80;99.90
21306;DHT22;10812;51.838;5.838;2023-09-19T04:17:13;12.90;99.90
21306;DHT22;10812;51.838;5.838;2023-09-19T04:19:41;12.90;99.90
21306;DHT22;10812;51.838;5.838;2023-09-19T04:22:09;12.80;99.90
21306;DHT22;10812;51.838;5.838;2023-09-19T04:24:38;12.90;99.90
21306;DHT22;10812;51.838;5.838;2023-09-19T04:27:08;12.80;99.90
21306;DHT22;10812;51.838;5.838;2023-09-19T04:29:36;12.80;99.90
21306;DHT22;10812;51.838;5.838;2023-09-19T04:32:06;12.90;99.90
21306;DHT22;10812;51.838;5.838;2023-09-19T04:34:34;12.80;99.90
21306;DHT22;10812;51.838;5.838;2023-09-19T04:37:02;12.80;99.90
21306;DHT22;10812;51.838;5.838;2023-09-19T04:39:53;12.80;99.90
21306;DHT22;10812;51.838;5.838;2023-09-19T04:42:22;12.90;99.90
21306;DHT22;10812;51.838;5.838;2023-09-19T04:44:51;12.90;99.90
21306;DHT22;10812;51.838;5.838;2023-09-19T04:47:21;12.90;99.90
21306;DHT22;10812;51.838;5.838;2023-09-19T04:49:49;12.90;99.90
21306;DHT22;10812;51.838;5.838;2023-09-19T04:52:17;12.90;99.90
21306;DHT22;10812;51.838;5.838;2023-09-19T04:54:47;13.00;99.90
21306;DHT22;10812;51.838;5.838;2023-09-19T04:57:15;13.00;99.90
21306;DHT22;10812;51.838;5.838;2023-09-19T04:59:45;13.00;99.90
21306;DHT22;10812;51.838;5.838;2023-09-19T05:14:07;13.00;99.90
21306;DHT22;10812;51.838;5.838;2023-09-19T05:16:37;13.10;99.90
21306;DHT22;10812;51.838;5.838;2023-09-19T05:19:05;13.10;99.90
21306;DHT22;10812;51.838;5.838;2023-09-19T05:21:33;13.10;99.90
21306;DHT22;10812;51.838;5.838;2023-09-19T05:24:01;13.10;99.90
21306;DHT22;10812;51.838;5.838;2023-09-19T05:26:29;13.10;99.90
21306;DHT22;10812;51.838;5.838;2023-09-19T05:28:58;13.20;99.90
21306;DHT22;10812;51.838;5.838;2023-09-19T05:31:27;13.20;99.90
21306;DHT22;10812;51.838;5.838;2023-09-19T05:33:59;13.20;99.90
21306;DHT22;10812;51.838;5.838;2023-09-19T05:36:27;13.20;99.90
21306;DHT22;10812;51.838;5.838;2023-09-19T05:38:56;13.30;99.90
21306;DHT22;10812;51.838;5.838;2023-09-19T05:41:24;13.30;99.90
21306;DHT22;10812;51.838;5.838;2023-09-19T05:43:52;13.40;99.90
21306;DHT22;10812;51.838;5.838;2023-09-19T05:46:21;13.40;99.90
21306;DHT22;10812;51.838;5.838;2023-09-19T05:48:49;13.40;99.90
21306;DHT22;10812;51.838;5.838;2023-09-19T05:51:19;13.50;99.90
21306;DHT22;10812;51.838;5.838;2023-09-19T05:53:49;13.50;99.90
21306;DHT22;10812;51.838;5.838;2023-09-19T05:56:17;13.60;99.90
21306;DHT22;10812;51.838;5.838;2023-09-19T05:58:45;13.60;99.90
21306;DHT22;10812;51.838;5.838;2023-09-19T06:01:13;13.60;99.90
21306;DHT22;10812;51.838;5.838;2023-09-19T06:03:41;13.70;99.90
21306;DHT22;10812;51.838;5.838;2023-09-19T06:06:10;13.70;99.90
21306;DHT22;10812;51.838;5.838;2023-09-19T06:08:39;13.70;99.90
21306;DHT22;10812;51.838;5.838;2023-09-19T06:11:12;13.80;99.90
21306;DHT22;10812;51.838;5.838;2023-09-19T06:13:40;13.90;99.90
21306;DHT22;10812;51.838;5.838;2023-09-19T06:16:09;13.90;99.90
21306;DHT22;10812;51.838;5.838;2023-09-19T06:18:37;14.00;99.90
21306;DHT22;10812;51.838;5.838;2023-09-19T06:21:05;14.10;99.90
21306;DHT22;10812;51.838;5.838;2023-09-19T06:23:34;14.20;99.90
21306;DHT22;10812;51.838;5.838;2023-09-19T06:26:04;14.20;99.90
21306;DHT22;10812;51.838;5.838;2023-09-19T06:28:33;14.30;99.90
21306;DHT22;10812;51.838;5.838;2023-09-19T06:31:02;14.40;99.90
21306;DHT22;10812;51.838;5.838;2023-09-19T06:33:31;14.40;99.90
21306;DHT22;10812;51.838;5.838;2023-09-19T06:35:59;14.50;99.90
21306;DHT22;10812;51.838;5.838;2023-09-19T06:38:27;14.60;99.90
21306;DHT22;10812;51.838;5.838;2023-09-19T06:40:55;14.70;99.90
21306;DHT22;10812;51.838;5.838;2023-09-19T06:43:25;14.80;99.90
21306;DHT22;10812;51.838;5.838;2023-09-19T06:45:53;14.90;99.90
21306;DHT22;10812;51.838;5.838;2023-09-19T06:48:22;15.10;99.90
21306;DHT22;10812;51.838;5.838;2023-09-19T06:50:52;15.30;99.90
21306;DHT22;10812;51.838;5.838;2023-09-19T06:53:21;15.40;99.90
21306;DHT22;10812;51.838;5.838;2023-09-19T06:55:50;15.50;99.90
21306;DHT22;10812;51.838;5.838;2023-09-19T06:58:18;15.60;99.90
21306;DHT22;10812;51.838;5.838;2023-09-19T07:00:48;15.70;99.90
21306;DHT22;10812;51.838;5.838;2023-09-19T07:03:16;15.90;99.90
21306;DHT22;10812;51.838;5.838;2023-09-19T07:05:47;16.10;99.90
21306;DHT22;10812;51.838;5.838;2023-09-19T07:08:16;16.00;99.90
21306;DHT22;10812;51.838;5.838;2023-09-19T07:10:46;16.00;99.90
21306;DHT22;10812;51.838;5.838;2023-09-19T07:13:16;16.10;99.90
21306;DHT22;10812;51.838;5.838;2023-09-19T07:15:44;16.30;99.90
21306;DHT22;10812;51.838;5.838;2023-09-19T07:18:16;16.60;99.90
21306;DHT22;10812;51.838;5.838;2023-09-19T07:20:47;17.10;99.90
21306;DHT22;10812;51.838;5.838;2023-09-19T07:23:17;17.60;99.90
21306;DHT22;10812;51.838;5.838;2023-09-19T07:25:46;18.00;99.90
21306;DHT22;10812;51.838;5.838;2023-09-19T07:28:15;18.00;99.90
21306;DHT22;10812;51.838;5.838;2023-09-19T07:30:43;18.20;99.90
21306;DHT22;10812;51.838;5.838;2023-09-19T07:33:11;18.20;99.90
21306;DHT22;10812;51.838;5.838;2023-09-19T07:35:45;18.20;99.90
21306;DHT22;10812;51.838;5.838;2023-09-19T07:38:13;18.40;99.90
21306;DHT22;10812;51.838;5.838;2023-09-19T07:40:41;18.60;99.90
21306;DHT22;10812;51.838;5.838;2023-09-19T07:43:09;19.00;99.90
21306;DHT22;10812;51.838;5.838;2023-09-19T07:45:37;19.10;99.90
21306;DHT22;10812;51.838;5.838;2023-09-19T07:48:07;19.20;99.90
21306;DHT22;10812;51.838;5.838;2023-09-19T07:50:42;19.30;99.90
21306;DHT22;10812;51.838;5.838;2023-09-19T07:53:11;19.50;99.90
21306;DHT22;10812;51.838;5.838;2023-09-19T07:55:40;19.70;99.90
21306;DHT22;10812;51.838;5.838;2023-09-19T07:58:09;19.90;99.90
21306;DHT22;10812;51.838;5.838;2023-09-19T08:00:37;20.10;99.90
21306;DHT22;10812;51.838;5.838;2023-09-19T08:03:05;20.00;99.90
21306;DHT22;10812;51.838;5.838;2023-09-19T08:05:44;20.00;99.90
21306;DHT22;10812;51.838;5.838;2023-09-19T08:08:13;20.70;99.90
21306;DHT22;10812;51.838;5.838;2023-09-19T08:10:42;21.20;99.90
21306;DHT22;10812;51.838;5.838;2023-09-19T08:13:13;21.60;99.90
21306;DHT22;10812;51.838;5.838;2023-09-19T08:15:43;21.30;99.90
21306;DHT22;10812;51.838;5.838;2023-09-19T08:18:12;21.00;99.90
21306;DHT22;10812;51.838;5.838;2023-09-19T08:20:40;20.70;99.90
21306;DHT22;10812;51.838;5.838;2023-09-19T08:23:10;20.80;99.90
21306;DHT22;10812;51.838;5.838;2023-09-19T08:25:38;20.90;99.90
21306;DHT22;10812;51.838;5.838;2023-09-19T08:28:06;20.90;99.90
21306;DHT22;10812;51.838;5.838;2023-09-19T08:30:38;20.80;99.90
21306;DHT22;10812;51.838;5.838;2023-09-19T08:33:07;20.50;99.90
21306;DHT22;10812;51.838;5.838;2023-09-19T08:35:35;20.20;99.90
21306;DHT22;10812;51.838;5.838;2023-09-19T08:38:04;20.40;99.90
21306;DHT22;10812;51.838;5.838;2023-09-19T08:40:37;20.40;99.90
21306;DHT22;10812;51.838;5.838;2023-09-19T08:43:06;21.10;99.90
21306;DHT22;10812;51.838;5.838;2023-09-19T08:45:35;21.30;99.90
21306;DHT22;10812;51.838;5.838;2023-09-19T08:48:18;21.50;99.90
21306;DHT22;10812;51.838;5.838;2023-09-19T08:50:49;21.70;99.90
21306;DHT22;10812;51.838;5.838;2023-09-19T08:53:27;22.10;99.90
21306;DHT22;10812;51.838;5.838;2023-09-19T08:56:01;22.30;99.90
21306;DHT22;10812;51.838;5.838;2023-09-19T08:58:34;22.20;99.90
21306;DHT22;10812;51.838;5.838;2023-09-19T09:01:07;22.00;99.90
21306;DHT22;10812;51.838;5.838;2023-09-19T09:03:37;22.10;99.90
21306;DHT22;10812;51.838;5.838;2023-09-19T09:06:08;22.20;99.90
21306;DHT22;10812;51.838;5.838;2023-09-19T09:08:40;22.60;99.90
21306;DHT22;10812;51.838;5.838;2023-09-19T09:11:11;22.80;99.90
21306;DHT22;10812;51.838;5.838;2023-09-19T09:13:42;22.50;99.90
21306;DHT22;10812;51.838;5.838;2023-09-19T09:16:11;22.80;99.90
21306;DHT22;10812;51.838;5.838;2023-09-19T09:18:40;22.90;99.90
21306;DHT22;10812;51.838;5.838;2023-09-19T09:21:11;22.80;99.90
21306;DHT22;10812;51.838;5.838;2023-09-19T09:23:41;23.10;99.90
21306;DHT22;10812;51.838;5.838;2023-09-19T09:26:10;23.40;99.90
21306;DHT22;10812;51.838;5.838;2023-09-19T09:28:45;23.60;99.90
21306;DHT22;10812;51.838;5.838;2023-09-19T09:31:32;23.40;99.90
21306;DHT22;10812;51.838;5.838;2023-09-19T09:34:00;23.20;99.90
21306;DHT22;10812;51.838;5.838;2023-09-19T09:36:36;23.00;99.90
21306;DHT22;10812;51.838;5.838;2023-09-19T09:39:05;22.90;99.90
21306;DHT22;10812;51.838;5.838;2023-09-19T09:41:46;23.30;99.90
21306;DHT22;10812;51.838;5.838;2023-09-19T09:44:15;23.00;99.90
21306;DHT22;10812;51.838;5.838;2023-09-19T09:46:45;22.60;99.90
21306;DHT22;10812;51.838;5.838;2023-09-19T09:49:48;22.30;99.90
21306;DHT22;10812;51.838;5.838;2023-09-19T09:52:21;22.30;99.90
21306;DHT22;10812;51.838;5.838;2023-09-19T09:55:01;22.10;99.90
21306;DHT22;10812;51.838;5.838;2023-09-19T09:57:34;22.20;99.90
21306;DHT22;10812;51.838;5.838;2023-09-19T10:00:03;22.60;99.90
21306;DHT22;10812;51.838;5.838;2023-09-19T10:02:47;22.40;99.90
21306;DHT22;10812;51.838;5.838;2023-09-19T10:05:17;22.10;99.90
21306;DHT22;10812;51.838;5.838;2023-09-19T10:07:55;22.30;99.90
21306;DHT22;10812;51.838;5.838;2023-09-19T10:10:31;21.90;99.90
21306;DHT22;10812;51.838;5.838;2023-09-19T10:13:13;21.80;99.90
21306;DHT22;10812;51.838;5.838;2023-09-19T10:15:43;21.90;99.90
21306;DHT22;10812;51.838;5.838;2023-09-19T10:18:17;21.70;99.90
21306;DHT22;10812;51.838;5.838;2023-09-19T10:20:47;21.50;99.90
21306;DHT22;10812;51.838;5.838;2023-09-19T10:23:17;21.00;99.90
21306;DHT22;10812;51.838;5.838;2023-09-19T10:25:49;20.60;99.90
21306;DHT22;10812;51.838;5.838;2023-09-19T10:28:21;20.60;99.90
21306;DHT22;10812;51.838;5.838;2023-09-19T10:30:51;20.30;99.90
21306;DHT22;10812;51.838;5.838;2023-09-19T10:33:21;20.20;99.90
21306;DHT22;10812;51.838;5.838;2023-09-19T10:35:51;20.30;99.90
21306;DHT22;10812;51.838;5.838;2023-09-19T10:38:22;20.30;99.90
21306;DHT22;10812;51.838;5.838;2023-09-19T10:40:51;20.30;99.90
21306;DHT22;10812;51.838;5.838;2023-09-19T10:43:26;20.30;99.90
21306;DHT22;10812;51.838;5.838;2023-09-19T10:46:03;20.40;99.90
21306;DHT22;10812;51.838;5.838;2023-09-19T10:48:32;20.40;99.90
21306;DHT22;10812;51.838;5.838;2023-09-19T10:51:04;20.50;99.90
21306;DHT22;10812;51.838;5.838;2023-09-19T10:53:42;20.50;99.90
21306;DHT22;10812;51.838;5.838;2023-09-19T10:56:11;20.60;99.90
21306;DHT22;10812;51.838;5.838;2023-09-19T10:58:46;20.70;99.90
21306;DHT22;10812;51.838;5.838;2023-09-19T11:01:16;20.80;99.90
21306;DHT22;10812;51.838;5.838;2023-09-19T11:03:45;20.80;99.90
21306;DHT22;10812;51.838;5.838;2023-09-19T11:06:17;20.80;99.90
21306;DHT22;10812;51.838;5.838;2023-09-19T11:08:57;20.80;99.90
21306;DHT22;10812;51.838;5.838;2023-09-19T11:11:39;20.80;99.90
21306;DHT22;10812;51.838;5.838;2023-09-19T11:14:37;21.00;99.90
21306;DHT22;10812;51.838;5.838;2023-09-19T11:17:31;21.10;99.90
21306;DHT22;10812;51.838;5.838;2023-09-19T11:20:19;21.10;99.90
21306;DHT22;10812;51.838;5.838;2023-09-19T11:23:21;21.10;99.90
21306;DHT22;10812;51.838;5.838;2023-09-19T11:25:57;21.30;99.90
21306;DHT22;10812;51.838;5.838;2023-09-19T11:28:33;21.40;99.90
21306;DHT22;10812;51.838;5.838;2023-09-19T11:34:41;21.70;99.90
21306;DHT22;10812;51.838;5.838;2023-09-19T11:46:58;22.00;99.90
21306;DHT22;10812;51.838;5.838;2023-09-19T11:49:28;21.80;99.90
21306;DHT22;10812;51.838;5.838;2023-09-19T11:52:00;21.80;99.90
21306;DHT22;10812;51.838;5.838;2023-09-19T11:54:32;21.90;99.90
21306;DHT22;10812;51.838;5.838;2023-09-19T11:57:01;21.90;99.90
21306;DHT22;10812;51.838;5.838;2023-09-19T11:59:30;21.80;99.90
21306;DHT22;10812;51.838;5.838;2023-09-19T12:02:03;21.60;99.90
21306;DHT22;10812;51.838;5.838;2023-09-19T12:04:36;21.40;99.90
21306;DHT22;10812;51.838;5.838;2023-09-19T12:07:08;21.30;99.90
21306;DHT22;10812;51.838;5.838;2023-09-19T12:09:44;21.30;99.90
21306;DHT22;10812;51.838;5.838;2023-09-19T12:12:19;21.10;99.90
21306;DHT22;10812;51.838;5.838;2023-09-19T12:14:48;21.10;99.90
21306;DHT22;10812;51.838;5.838;2023-09-19T12:17:17;21.10;99.90
21306;DHT22;10812;51.838;5.838;2023-09-19T12:19:53;21.20;99.90
21306;DHT22;10812;51.838;5.838;2023-09-19T12:22:23;21.30;99.90
21306;DHT22;10812;51.838;5.838;2023-09-19T12:24:51;21.20;99.90
21306;DHT22;10812;51.838;5.838;2023-09-19T12:27:21;21.20;99.90
21306;DHT22;10812;51.838;5.838;2023-09-19T12:29:49;21.20;99.90
21306;DHT22;10812;51.838;5.838;2023-09-19T12:32:34;21.20;99.90
21306;DHT22;10812;51.838;5.838;2023-09-19T12:35:02;21.20;99.90
21306;DHT22;10812;51.838;5.838;2023-09-19T12:37:36;21.10;99.90
21306;DHT22;10812;51.838;5.838;2023-09-19T12:40:06;21.10;99.90
21306;DHT22;10812;51.838;5.838;2023-09-19T12:42:55;21.20;99.90
21306;DHT22;10812;51.838;5.838;2023-09-19T12:45:25;21.30;99.90
21306;DHT22;10812;51.838;5.838;2023-09-19T12:48:19;21.30;99.90
21306;DHT22;10812;51.838;5.838;2023-09-19T12:51:02;21.20;99.90
21306;DHT22;10812;51.838;5.838;2023-09-19T12:53:35;21.00;99.90
21306;DHT22;10812;51.838;5.838;2023-09-19T12:56:08;20.80;99.90
21306;DHT22;10812;51.838;5.838;2023-09-19T12:58:48;20.60;99.90
21306;DHT22;10812;51.838;5.838;2023-09-19T13:01:17;20.50;99.90
21306;DHT22;10812;51.838;5.838;2023-09-19T13:03:45;20.30;99.90
21306;DHT22;10812;51.838;5.838;2023-09-19T13:06:13;20.20;99.90
21306;DHT22;10812;51.838;5.838;2023-09-19T13:08:45;20.40;99.90
21306;DHT22;10812;51.838;5.838;2023-09-19T13:11:21;20.60;99.90
21306;DHT22;10812;51.838;5.838;2023-09-19T13:13:51;20.80;99.90
21306;DHT22;10812;51.838;5.838;2023-09-19T13:16:55;20.80;99.90
21306;DHT22;10812;51.838;5.838;2023-09-19T13:19:41;20.90;99.90
21306;DHT22;10812;51.838;5.838;2023-09-19T13:22:42;20.80;99.90
21306;DHT22;10812;51.838;5.838;2023-09-19T13:25:15;20.80;99.90
21306;DHT22;10812;51.838;5.838;2023-09-19T13:27:46;20.80;99.90
21306;DHT22;10812;51.838;5.838;2023-09-19T13:30:15;21.00;99.90
21306;DHT22;10812;51.838;5.838;2023-09-19T13:32:43;21.10;99.90
21306;DHT22;10812;51.838;5.838;2023-09-19T13:35:12;21.10;99.90
21306;DHT22;10812;51.838;5.838;2023-09-19T13:37:41;21.30;99.90
21306;DHT22;10812;51.838;5.838;2023-09-19T13:40:11;21.20;99.90
21306;DHT22;10812;51.838;5.838;2023-09-19T13:42:42;21.00;99.90
21306;DHT22;10812;51.838;5.838;2023-09-19T13:45:11;20.80;99.90
21306;DHT22;10812;51.838;5.838;2023-09-19T13:47:42;20.60;99.90
21306;DHT22;10812;51.838;5.838;2023-09-19T13:50:10;20.50;99.90
21306;DHT22;10812;51.838;5.838;2023-09-19T13:52:39;20.50;99.90
21306;DHT22;10812;51.838;5.838;2023-09-19T13:55:07;20.50;99.90
21306;DHT22;10812;51.838;5.838;2023-09-19T13:57:36;20.60;99.90
21306;DHT22;10812;51.838;5.838;2023-09-19T14:00:07;20.70;99.90
21306;DHT22;10812;51.838;5.838;2023-09-19T14:02:37;20.80;99.90
21306;DHT22;10812;51.838;5.838;2023-09-19T14:05:06;21.00;99.90
21306;DHT22;10812;51.838;5.838;2023-09-19T14:07:34;21.00;99.90
21306;DHT22;10812;51.838;5.838;2023-09-19T14:10:04;21.10;99.90
21306;DHT22;10812;51.838;5.838;2023-09-19T14:12:34;21.20;99.90
21306;DHT22;10812;51.838;5.838;2023-09-19T14:15:03;21.10;99.90
21306;DHT22;10812;51.838;5.838;2023-09-19T14:17:32;21.10;99.90
21306;DHT22;10812;51.838;5.838;2023-09-19T14:20:00;21.10;99.90
21306;DHT22;10812;51.838;5.838;2023-09-19T14:22:29;20.80;99.90
21306;DHT22;10812;51.838;5.838;2023-09-19T14:24:58;20.80;99.90
21306;DHT22;10812;51.838;5.838;2023-09-19T14:27:26;20.80;99.90
21306;DHT22;10812;51.838;5.838;2023-09-19T14:29:54;20.80;99.90
21306;DHT22;10812;51.838;5.838;2023-09-19T14:32:23;20.70;99.90
21306;DHT22;10812;51.838;5.838;2023-09-19T14:34:53;20.70;99.90
21306;DHT22;10812;51.838;5.838;2023-09-19T14:37:21;20.70;99.90
21306;DHT22;10812;51.838;5.838;2023-09-19T14:39:49;20.80;99.90
21306;DHT22;10812;51.838;5.838;2023-09-19T14:42:17;20.80;99.90
21306;DHT22;10812;51.838;5.838;2023-09-19T14:44:45;20.80;99.90
21306;DHT22;10812;51.838;5.838;2023-09-19T14:47:14;20.80;99.90
21306;DHT22;10812;51.838;5.838;2023-09-19T14:49:43;20.70;99.90
21306;DHT22;10812;51.838;5.838;2023-09-19T14:52:13;20.70;99.90
21306;DHT22;10812;51.838;5.838;2023-09-19T14:54:43;20.70;99.90
21306;DHT22;10812;51.838;5.838;2023-09-19T14:57:11;20.50;99.90
21306;DHT22;10812;51.838;5.838;2023-09-19T14:59:40;20.50;99.90
21306;DHT22;10812;51.838;5.838;2023-09-19T15:02:08;20.50;99.90
21306;DHT22;10812;51.838;5.838;2023-09-19T15:04:37;20.40;99.90
21306;DHT22;10812;51.838;5.838;2023-09-19T15:07:08;20.40;99.90
21306;DHT22;10812;51.838;5.838;2023-09-19T15:09:37;20.40;99.90
21306;DHT22;10812;51.838;5.838;2023-09-19T15:12:06;20.30;99.90
21306;DHT22;10812;51.838;5.838;2023-09-19T15:14:34;20.20;99.90
21306;DHT22;10812;51.838;5.838;2023-09-19T15:17:02;20.20;99.90
21306;DHT22;10812;51.838;5.838;2023-09-19T15:19:31;20.20;99.90
21306;DHT22;10812;51.838;5.838;2023-09-19T15:21:59;20.10;99.90
21306;DHT22;10812;51.838;5.838;2023-09-19T15:24:28;20.00;99.90
21306;DHT22;10812;51.838;5.838;2023-09-19T15:26:57;19.90;99.90
21306;DHT22;10812;51.838;5.838;2023-09-19T15:29:25;19.90;99.90
21306;DHT22;10812;51.838;5.838;2023-09-19T15:31:55;19.90;99.90
21306;DHT22;10812;51.838;5.838;2023-09-19T15:34:25;19.80;99.90
21306;DHT22;10812;51.838;5.838;2023-09-19T15:36:53;19.80;99.90
21306;DHT22;10812;51.838;5.838;2023-09-19T15:39:21;19.80;99.90
21306;DHT22;10812;51.838;5.838;2023-09-19T15:41:50;19.80;99.90
21306;DHT22;10812;51.838;5.838;2023-09-19T15:44:19;19.70;99.90
21306;DHT22;10812;51.838;5.838;2023-09-19T15:46:47;19.70;99.90
21306;DHT22;10812;51.838;5.838;2023-09-19T15:49:16;19.60;99.90
21306;DHT22;10812;51.838;5.838;2023-09-19T15:51:43;19.50;99.90
21306;DHT22;10812;51.838;5.838;2023-09-19T15:54:13;19.50;99.90
21306;DHT22;10812;51.838;5.838;2023-09-19T15:56:41;19.50;99.90
21306;DHT22;10812;51.838;5.838;2023-09-19T15:59:09;19.40;99.90
21306;DHT22;10812;51.838;5.838;2023-09-19T16:01:41;19.40;99.90
21306;DHT22;10812;51.838;5.838;2023-09-19T16:04:10;19.40;99.90
21306;DHT22;10812;51.838;5.838;2023-09-19T16:06:38;19.40;99.90
21306;DHT22;10812;51.838;5.838;2023-09-19T16:09:08;19.50;99.90
21306;DHT22;10812;51.838;5.838;2023-09-19T16:11:37;19.50;99.90
21306;DHT22;10812;51.838;5.838;2023-09-19T16:14:05;19.50;99.90
21306;DHT22;10812;51.838;5.838;2023-09-19T16:16:34;19.40;99.90
21306;DHT22;10812;51.838;5.838;2023-09-19T16:19:04;19.40;99.90
21306;DHT22;10812;51.838;5.838;2023-09-19T16:21:37;19.30;99.90
21306;DHT22;10812;51.838;5.838;2023-09-19T16:24:07;19.30;99.90
21306;DHT22;10812;51.838;5.838;2023-09-19T16:26:37;19.20;99.90
21306;DHT22;10812;51.838;5.838;2023-09-19T16:29:05;19.20;99.90
21306;DHT22;10812;51.838;5.838;2023-09-19T16:31:34;19.20;99.90
21306;DHT22;10812;51.838;5.838;2023-09-19T16:34:04;19.20;99.90
21306;DHT22;10812;51.838;5.838;2023-09-19T16:36:32;19.20;99.90
21306;DHT22;10812;51.838;5.838;2023-09-19T16:39:01;19.20;99.90
21306;DHT22;10812;51.838;5.838;2023-09-19T16:41:30;19.20;99.90
21306;DHT22;10812;51.838;5.838;2023-09-19T16:43:59;19.20;99.90
21306;DHT22;10812;51.838;5.838;2023-09-19T16:46:27;19.10;99.90
21306;DHT22;10812;51.838;5.838;2023-09-19T16:48:55;19.10;99.90
21306;DHT22;10812;51.838;5.838;2023-09-19T16:51:31;19.10;99.90
21306;DHT22;10812;51.838;5.838;2023-09-19T16:53:59;19.10;99.90
21306;DHT22;10812;51.838;5.838;2023-09-19T16:56:28;19.10;99.90
21306;DHT22;10812;51.838;5.838;2023-09-19T16:59:00;19.10;99.90
21306;DHT22;10812;51.838;5.838;2023-09-19T17:01:31;19.10;99.90
21306;DHT22;10812;51.838;5.838;2023-09-19T17:04:00;19.10;99.90
21306;DHT22;10812;51.838;5.838;2023-09-19T17:06:31;19.00;99.90
21306;DHT22;10812;51.838;5.838;2023-09-19T17:09:00;19.00;99.90
21306;DHT22;10812;51.838;5.838;2023-09-19T17:11:28;19.00;99.90
21306;DHT22;10812;51.838;5.838;2023-09-19T17:13:56;18.90;99.90
21306;DHT22;10812;51.838;5.838;2023-09-19T17:16:25;19.00;99.90
21306;DHT22;10812;51.838;5.838;2023-09-19T17:18:57;19.00;99.90
21306;DHT22;10812;51.838;5.838;2023-09-19T17:21:26;19.00;99.90
21306;DHT22;10812;51.838;5.838;2023-09-19T17:23:56;18.90;99.90
21306;DHT22;10812;51.838;5.838;2023-09-19T17:26:25;18.90;99.90
21306;DHT22;10812;51.838;5.838;2023-09-19T17:28:55;18.90;99.90
21306;DHT22;10812;51.838;5.838;2023-09-19T17:31:25;18.80;99.90
21306;DHT22;10812;51.838;5.838;2023-09-19T17:33:55;18.80;99.90
21306;DHT22;10812;51.838;5.838;2023-09-19T17:36:25;18.90;99.90
21306;DHT22;10812;51.838;5.838;2023-09-19T17:38:56;18.80;99.90
21306;DHT22;10812;51.838;5.838;2023-09-19T17:41:25;18.80;99.90
21306;DHT22;10812;51.838;5.838;2023-09-19T17:43:54;18.80;99.90
21306;DHT22;10812;51.838;5.838;2023-09-19T17:46:23;18.80;99.90
21306;DHT22;10812;51.838;5.838;2023-09-19T17:48:54;18.70;99.90
21306;DHT22;10812;51.838;5.838;2023-09-19T17:51:23;18.70;99.90
21306;DHT22;10812;51.838;5.838;2023-09-19T17:53:52;18.70;99.90
21306;DHT22;10812;51.838;5.838;2023-09-19T17:56:22;18.60;99.90
21306;DHT22;10812;51.838;5.838;2023-09-19T17:58:51;18.60;99.90
21306;DHT22;10812;51.838;5.838;2023-09-19T18:01:22;18.70;99.90
21306;DHT22;10812;51.838;5.838;2023-09-19T18:03:53;18.60;99.90
21306;DHT22;10812;51.838;5.838;2023-09-19T18:06:26;18.70;99.90
21306;DHT22;10812;51.838;5.838;2023-09-19T18:08:54;18.60;99.90
21306;DHT22;10812;51.838;5.838;2023-09-19T18:11:25;18.70;99.90
21306;DHT22;10812;51.838;5.838;2023-09-19T18:13:55;18.60;99.90
21306;DHT22;10812;51.838;5.838;2023-09-19T18:16:25;18.70;99.90
21306;DHT22;10812;51.838;5.838;2023-09-19T18:18:58;18.70;99.90
21306;DHT22;10812;51.838;5.838;2023-09-19T18:21:27;18.70;99.90
21306;DHT22;10812;51.838;5.838;2023-09-19T18:23:55;18.70;99.90
21306;DHT22;10812;51.838;5.838;2023-09-19T18:26:25;18.60;99.90
21306;DHT22;10812;51.838;5.838;2023-09-19T18:28:55;18.60;99.90
21306;DHT22;10812;51.838;5.838;2023-09-19T18:31:23;18.60;99.90
21306;DHT22;10812;51.838;5.838;2023-09-19T18:33:51;18.60;99.90
21306;DHT22;10812;51.838;5.838;2023-09-19T18:36:21;18.50;99.90
21306;DHT22;10812;51.838;5.838;2023-09-19T18:38:49;18.50;99.90
21306;DHT22;10812;51.838;5.838;2023-09-19T18:41:18;18.40;99.90
21306;DHT22;10812;51.838;5.838;2023-09-19T18:43:47;18.40;99.90
21306;DHT22;10812;51.838;5.838;2023-09-19T18:46:16;18.40;99.90
21306;DHT22;10812;51.838;5.838;2023-09-19T18:48:45;18.30;99.90
21306;DHT22;10812;51.838;5.838;2023-09-19T18:51:15;18.30;99.90
21306;DHT22;10812;51.838;5.838;2023-09-19T18:53:45;18.20;99.90
21306;DHT22;10812;51.838;5.838;2023-09-19T18:56:33;18.20;99.90
21306;DHT22;10812;51.838;5.838;2023-09-19T18:59:03;18.10;99.90
21306;DHT22;10812;51.838;5.838;2023-09-19T19:01:32;18.20;99.90
21306;DHT22;10812;51.838;5.838;2023-09-19T19:04:00;18.10;99.90
21306;DHT22;10812;51.838;5.838;2023-09-19T19:06:28;18.10;99.90
21306;DHT22;10812;51.838;5.838;2023-09-19T19:08:58;18.10;99.90
21306;DHT22;10812;51.838;5.838;2023-09-19T19:11:26;18.10;99.90
21306;DHT22;10812;51.838;5.838;2023-09-19T19:13:57;18.10;99.90
21306;DHT22;10812;51.838;5.838;2023-09-19T19:16:26;18.10;99.90
21306;DHT22;10812;51.838;5.838;2023-09-19T19:18:57;18.10;99.90
21306;DHT22;10812;51.838;5.838;2023-09-19T19:21:26;18.10;99.90
21306;DHT22;10812;51.838;5.838;2023-09-19T19:23:54;18.10;99.90
21306;DHT22;10812;51.838;5.838;2023-09-19T19:26:22;18.10;99.90
21306;DHT22;10812;51.838;5.838;2023-09-19T19:28:51;18.10;99.90
21306;DHT22;10812;51.838;5.838;2023-09-19T19:31:19;18.10;99.90
21306;DHT22;10812;51.838;5.838;2023-09-19T19:33:51;18.10;99.90
21306;DHT22;10812;51.838;5.838;2023-09-19T19:36:20;18.10;99.90
21306;DHT22;10812;51.838;5.838;2023-09-19T19:38:49;18.10;99.90
21306;DHT22;10812;51.838;5.838;2023-09-19T19:41:19;18.10;99.90
21306;DHT22;10812;51.838;5.838;2023-09-19T19:43:47;18.10;99.90
21306;DHT22;10812;51.838;5.838;2023-09-19T19:46:16;18.10;99.90
21306;DHT22;10812;51.838;5.838;2023-09-19T19:48:47;18.10;99.90
21306;DHT22;10812;51.838;5.838;2023-09-19T19:51:17;18.00;99.90
21306;DHT22;10812;51.838;5.838;2023-09-19T19:53:45;18.00;99.90
21306;DHT22;10812;51.838;5.838;2023-09-19T19:56:14;18.00;99.90
21306;DHT22;10812;51.838;5.838;2023-09-19T19:58:42;18.00;99.90
21306;DHT22;10812;51.838;5.838;2023-09-19T20:01:10;18.00;99.90
21306;DHT22;10812;51.838;5.838;2023-09-19T20:03:38;18.10;99.90
21306;DHT22;10812;51.838;5.838;2023-09-19T20:06:06;18.10;99.90
21306;DHT22;10812;51.838;5.838;2023-09-19T20:08:36;18.00;99.90
21306;DHT22;10812;51.838;5.838;2023-09-19T20:11:07;18.10;99.90
21306;DHT22;10812;51.838;5.838;2023-09-19T20:13:36;18.00;99.90
21306;DHT22;10812;51.838;5.838;2023-09-19T20:16:10;18.10;99.90
21306;DHT22;10812;51.838;5.838;2023-09-19T20:18:39;18.10;99.90
21306;DHT22;10812;51.838;5.838;2023-09-19T20:21:08;18.10;99.90
21306;DHT22;10812;51.838;5.838;2023-09-19T20:23:42;18.10;99.90
21306;DHT22;10812;51.838;5.838;2023-09-19T20:26:13;18.10;99.90